createdAt,value
2023-03-12T00:04:16.128Z,7.00
2023-03-12T00:09:18.841Z,7.00
2023-03-12T00:14:21.548Z,6.90
2023-03-12T00:19:24.328Z,6.50
2023-03-12T00:24:27.071Z,8.30
2023-03-12T00:29:29.790Z,8.20
2023-03-12T00:34:32.537Z,7.80
2023-03-12T00:39:35.636Z,6.80
2023-03-12T00:44:38.689Z,5.90
2023-03-12T00:49:41.753Z,7.10
2023-03-12T00:54:44.458Z,6.60
2023-03-12T00:59:47.342Z,5.30
2023-03-12T01:04:50.059Z,6.50
2023-03-12T01:09:52.848Z,4.70
2023-03-12T01:14:55.656Z,5.20
2023-03-12T01:19:58.672Z,5.40
2023-03-12T01:25:01.388Z,5.80
2023-03-12T01:30:06.023Z,5.40
2023-03-12T01:35:09.341Z,6.50
2023-03-12T01:40:20.905Z,5.50
2023-03-12T01:45:58.079Z,5.90
2023-03-12T01:51:02.651Z,5.30
2023-03-12T01:56:08.639Z,5.20
2023-03-12T02:01:11.463Z,5.80
2023-03-12T02:06:15.919Z,6.20
2023-03-12T02:11:18.739Z,6.50
2023-03-12T02:16:21.554Z,7.60
2023-03-12T02:21:27.355Z,5.90
2023-03-12T02:26:31.237Z,6.80
2023-03-12T02:31:41.089Z,6.10
2023-03-12T02:36:43.920Z,7.60
2023-03-12T02:41:53.814Z,6.20
2023-03-12T02:46:59.295Z,4.60
2023-03-12T02:52:02.385Z,6.30
2023-03-12T02:57:05.269Z,5.80
2023-03-12T03:02:09.729Z,4.70
2023-03-12T03:07:12.642Z,5.50
2023-03-12T03:12:15.438Z,4.90
2023-03-12T03:17:18.398Z,5.70
2023-03-12T03:22:22.791Z,4.40
2023-03-12T03:27:25.691Z,4.10
2023-03-12T03:32:28.753Z,4.50
2023-03-12T03:37:31.514Z,3.20
2023-03-12T03:42:34.297Z,4.90
2023-03-12T03:47:37.128Z,3.70
2023-03-12T03:52:39.837Z,3.40
2023-03-12T03:57:42.538Z,3.20
2023-03-12T04:02:45.491Z,2.70
2023-03-12T04:07:48.527Z,2.10
2023-03-12T04:12:52.988Z,2.70
2023-03-12T04:17:55.887Z,2.10
2023-03-12T04:22:58.722Z,2.90
2023-03-12T04:28:02.080Z,2.00
2023-03-12T04:33:06.096Z,2.40
2023-03-12T04:38:08.807Z,1.80
2023-03-12T04:43:11.654Z,2.40
2023-03-12T04:48:14.492Z,2.50
2023-03-12T04:53:17.529Z,2.30
2023-03-12T04:58:20.805Z,3.00
2023-03-12T05:08:26.312Z,2.40
2023-03-12T05:13:29.025Z,2.90
2023-03-12T05:18:31.718Z,3.20
2023-03-12T05:23:36.044Z,3.30
2023-03-12T05:28:38.847Z,2.40
2023-03-12T05:33:42.004Z,2.20
2023-03-12T05:38:45.026Z,2.30
2023-03-12T05:43:48.549Z,2.40
2023-03-12T05:48:51.599Z,1.90
2023-03-12T05:53:54.371Z,2.10
2023-03-12T05:58:57.098Z,1.90
2023-03-12T06:03:59.937Z,2.00
2023-03-12T06:09:04.726Z,1.60
2023-03-12T06:14:07.603Z,3.20
2023-03-12T06:19:14.139Z,5.10
2023-03-12T06:24:16.913Z,2.40
2023-03-12T06:29:19.597Z,2.40
2023-03-12T06:34:22.360Z,1.60
2023-03-12T06:39:25.419Z,2.00
2023-03-12T06:44:28.154Z,2.10
2023-03-12T06:49:33.381Z,1.80
2023-03-12T06:54:36.154Z,2.60
2023-03-12T06:59:38.831Z,2.90
2023-03-12T07:04:41.541Z,3.50
2023-03-12T07:09:44.496Z,1.80
2023-03-12T07:14:47.234Z,2.10
2023-03-12T07:19:50.110Z,10.90
2023-03-12T07:24:52.901Z,21.20
2023-03-12T07:29:55.587Z,38.90
2023-03-12T07:34:58.397Z,10.30
2023-03-12T07:40:01.198Z,2.30
2023-03-12T07:45:04.599Z,2.60
2023-03-12T07:50:07.882Z,2.00
2023-03-12T08:00:15.427Z,8.70
2023-03-12T08:05:18.877Z,2.10
2023-03-12T08:10:22.512Z,3.10
2023-03-12T08:15:25.613Z,3.40
2023-03-12T08:20:28.702Z,4.00
2023-03-12T08:25:31.648Z,3.10
2023-03-12T08:30:34.404Z,2.90
2023-03-12T08:35:37.550Z,3.60
2023-03-12T08:40:40.532Z,3.00
2023-03-12T08:45:43.358Z,3.20
2023-03-12T08:50:46.036Z,3.00
2023-03-12T08:55:49.096Z,7.80
2023-03-12T09:00:52.673Z,4.90
2023-03-12T09:06:16.803Z,5.80
2023-03-12T09:11:19.671Z,2.50
2023-03-12T09:16:22.421Z,4.00
2023-03-12T09:21:25.267Z,3.50
2023-03-12T09:26:28.073Z,5.40
2023-03-12T09:31:30.871Z,3.60
2023-03-12T09:36:34.349Z,3.40
2023-03-12T09:41:40.549Z,3.80
2023-03-12T09:46:51.417Z,3.30
2023-03-12T09:51:57.124Z,3.90
2023-03-12T09:57:04.330Z,3.10
2023-03-12T10:02:30.249Z,2.40
2023-03-12T10:07:39.834Z,7.70
2023-03-12T10:12:54.500Z,5.40
2023-03-12T10:18:10.748Z,7.50
2023-03-12T10:23:52.027Z,20.80
2023-03-12T10:29:06.298Z,12.00
2023-03-12T10:34:19.159Z,8.80
2023-03-12T10:39:22.460Z,22.80
2023-03-12T10:49:32.225Z,19.10
2023-03-12T10:54:40.891Z,40.80
2023-03-12T10:59:47.618Z,5.50
2023-03-12T11:04:52.181Z,7.90
2023-03-12T11:10:07.241Z,5.50
2023-03-12T11:15:22.192Z,10.00
2023-03-12T11:20:28.021Z,5.20
2023-03-12T11:25:31.912Z,6.40
2023-03-12T11:30:41.044Z,3.90
2023-03-12T11:35:52.551Z,5.40
2023-03-12T11:41:08.659Z,13.00
2023-03-12T11:46:50.380Z,4.40
2023-03-12T11:52:12.824Z,5.20
2023-03-12T11:57:46.286Z,5.20
2023-03-12T12:03:30.949Z,6.90
2023-03-12T12:08:55.389Z,3.60
2023-03-12T12:14:11.986Z,4.50
2023-03-12T12:19:34.128Z,7.10
2023-03-12T12:24:51.212Z,3.90
2023-03-12T12:30:16.247Z,5.60
2023-03-12T12:35:27.810Z,4.10
2023-03-12T12:40:45.239Z,3.30
2023-03-12T12:45:52.581Z,3.80
2023-03-12T12:50:55.863Z,8.10
2023-03-12T13:01:02.637Z,19.60
2023-03-12T13:06:07.232Z,10.50
2023-03-12T13:11:19.464Z,7.50
2023-03-12T13:21:58.857Z,7.10
2023-03-12T13:27:19.340Z,13.50
2023-03-12T13:32:34.599Z,4.10
2023-03-12T13:37:46.780Z,11.30
2023-03-12T13:43:05.842Z,8.20
2023-03-12T13:48:16.407Z,10.50
2023-03-12T13:53:32.695Z,11.80
2023-03-12T13:59:09.661Z,9.00
2023-03-12T14:04:20.756Z,8.40
2023-03-12T14:09:32.785Z,6.70
2023-03-12T14:15:05.493Z,5.00
2023-03-12T14:20:11.335Z,4.40
2023-03-12T14:25:36.167Z,6.60
2023-03-12T14:30:49.778Z,6.30
2023-03-12T14:36:07.829Z,8.00
2023-03-12T14:41:39.840Z,11.80
2023-03-12T14:46:49.139Z,20.90
2023-03-12T14:51:51.938Z,9.30
2023-03-12T14:56:54.731Z,7.00
2023-03-12T15:02:02.250Z,6.80
2023-03-12T15:07:10.746Z,9.30
2023-03-12T15:12:35.078Z,11.70
2023-03-12T15:17:38.086Z,15.20
2023-03-12T15:22:41.564Z,44.10
2023-03-12T15:27:44.396Z,20.60
2023-03-12T15:33:22.119Z,14.40
2023-03-12T15:38:25.636Z,41.40
2023-03-12T15:48:35.061Z,23.60
2023-03-12T15:53:37.825Z,42.60
2023-03-12T15:58:42.075Z,34.70
2023-03-12T16:03:46.090Z,91.70
2023-03-12T16:08:53.109Z,101.60
2023-03-12T16:14:05.118Z,29.80
2023-03-12T16:19:20.394Z,64.40
2023-03-12T16:24:23.443Z,35.40
2023-03-12T16:29:35.646Z,26.40
2023-03-12T16:34:38.373Z,34.70
2023-03-12T16:39:41.245Z,54.20
2023-03-12T16:44:46.348Z,26.90
2023-03-12T16:49:49.290Z,25.90
2023-03-12T16:54:53.023Z,24.40
2023-03-12T16:59:55.746Z,23.10
2023-03-12T17:04:58.714Z,27.30
2023-03-12T17:15:25.923Z,21.20
2023-03-12T17:20:34.916Z,22.50
2023-03-12T17:25:40.761Z,22.90
2023-03-12T17:30:44.287Z,23.50
2023-03-12T17:35:58.866Z,21.60
2023-03-12T17:41:02.173Z,19.80
2023-03-12T17:51:11.739Z,15.60
2023-03-12T17:56:17.991Z,20.10
2023-03-12T18:01:21.080Z,21.60
2023-03-12T18:06:25.082Z,35.10
2023-03-12T18:11:28.097Z,44.20
2023-03-12T18:16:30.909Z,45.10
2023-03-12T18:21:33.742Z,45.30
2023-03-12T18:26:36.499Z,40.60
2023-03-12T18:31:39.288Z,41.20
2023-03-12T18:36:42.184Z,31.90
2023-03-12T18:41:44.995Z,29.70
2023-03-12T18:46:49.045Z,29.50
2023-03-12T18:51:55.962Z,31.40
2023-03-12T18:56:58.749Z,28.90
2023-03-12T19:02:01.554Z,25.40
2023-03-12T19:07:05.173Z,22.30
2023-03-12T19:12:07.979Z,22.80
2023-03-12T19:17:10.673Z,22.60
2023-03-12T19:22:13.472Z,25.80
2023-03-12T19:27:16.200Z,32.90
2023-03-12T19:32:18.933Z,34.90
2023-03-12T19:37:22.570Z,36.90
2023-03-12T19:42:25.423Z,44.40
2023-03-12T19:47:33.126Z,42.90
2023-03-12T19:52:35.838Z,38.10
2023-03-12T19:57:39.057Z,40.40
2023-03-12T20:02:42.200Z,41.50
2023-03-12T20:12:47.706Z,29.80
2023-03-12T20:17:50.467Z,28.40
2023-03-12T20:22:53.213Z,33.60
2023-03-12T20:27:57.424Z,32.40
2023-03-12T20:33:00.843Z,55.80
2023-03-12T20:38:05.045Z,29.40
2023-03-12T20:43:07.742Z,41.60
2023-03-12T20:48:10.925Z,33.40
2023-03-12T20:53:13.762Z,34.30
2023-03-12T20:58:17.141Z,28.60
2023-03-12T21:03:20.560Z,35.10
2023-03-12T21:08:24.037Z,32.40
2023-03-12T21:13:26.853Z,29.70
2023-03-12T21:18:29.587Z,30.30
2023-03-12T21:28:36.516Z,33.40
2023-03-12T21:33:39.287Z,41.80
2023-03-12T21:38:43.087Z,42.40
2023-03-12T21:43:47.248Z,34.70
2023-03-12T21:48:50.324Z,37.80
2023-03-12T21:53:57.680Z,22.00
2023-03-12T21:59:00.553Z,23.00
2023-03-12T22:04:05.579Z,20.40
2023-03-12T22:09:08.829Z,16.40
2023-03-12T22:14:11.525Z,10.90
2023-03-12T22:19:14.642Z,14.10
2023-03-12T22:24:17.392Z,9.00
2023-03-12T22:29:20.184Z,11.10
2023-03-12T22:34:22.930Z,21.30
2023-03-12T22:39:25.665Z,23.70
2023-03-12T22:44:28.364Z,23.50
2023-03-12T22:49:31.063Z,23.10
2023-03-12T22:54:33.871Z,22.30
2023-03-12T22:59:38.264Z,17.80
2023-03-12T23:04:41.069Z,19.50
2023-03-12T23:09:44.988Z,28.60
2023-03-12T23:14:47.803Z,26.40
2023-03-12T23:19:50.517Z,29.60
2023-03-12T23:24:53.327Z,22.70
2023-03-12T23:29:56.068Z,24.20
2023-03-12T23:34:58.803Z,25.20
2023-03-12T23:40:01.755Z,26.50
2023-03-12T23:45:05.086Z,20.90
2023-03-12T23:50:08.392Z,21.20
2023-03-12T23:55:11.090Z,19.00
